Time;durP1;ratioP1;P1;durP2;ratioP2;P2;SDS_P1;SDS_P2;PMS_P1;PMS_P2;Temp;Humidity;BMP_temperature;BMP_pressure;BME280_temperature;BME280_humidity;BME280_pressure;Samples;Min_cycle;Max_cycle;Signal;HPM_P1;HPM_P2
2023/02/13 00:02:07;;;;;;;21.92;13.60;;;10.50;99.90;;;;;;5024122;28;20080;-61
2023/02/13 00:04:33;;;;;;;25.67;13.88;;;10.60;99.90;;;;;;5014784;28;20030;-61
2023/02/13 00:06:59;;;;;;;23.55;13.20;;;10.50;99.90;;;;;;5012204;28;20099;-62
2023/02/13 00:09:25;;;;;;;22.40;12.82;;;10.50;99.90;;;;;;5023615;28;20052;-62
2023/02/13 00:11:50;;;;;;;21.33;12.25;;;10.50;99.90;;;;;;5022076;28;20076;-62
2023/02/13 00:14:16;;;;;;;18.20;10.63;;;10.50;99.90;;;;;;5011795;28;20117;-62
2023/02/13 00:16:42;;;;;;;17.45;10.13;;;10.40;99.90;;;;;;5011769;28;20101;-62
2023/02/13 00:19:07;;;;;;;17.02;9.65;;;10.30;99.90;;;;;;5011505;28;20029;-63
2023/02/13 00:21:33;;;;;;;18.02;11.05;;;10.30;99.90;;;;;;5026809;28;20072;-63
2023/02/13 00:23:58;;;;;;;16.25;10.00;;;10.30;99.90;;;;;;5029026;28;20544;-63
2023/02/13 00:26:24;;;;;;;14.38;9.25;;;10.40;99.90;;;;;;5033554;28;20099;-63
2023/02/13 00:28:50;;;;;;;17.38;10.20;;;10.30;99.90;;;;;;5011685;28;20061;-63
2023/02/13 00:31:18;;;;;;;14.63;8.95;;;10.40;99.90;;;;;;5011645;28;20041;-63
2023/02/13 00:33:44;;;;;;;14.20;8.98;;;10.40;99.90;;;;;;5016112;28;20026;-63
2023/02/13 00:36:15;;;;;;;13.90;8.07;;;10.40;99.90;;;;;;5027790;28;20429;-63
2023/02/13 00:38:41;;;;;;;13.27;7.55;;;10.40;99.90;;;;;;5013197;28;20029;-63
2023/02/13 00:41:07;;;;;;;10.20;6.65;;;10.40;99.90;;;;;;5014107;28;20485;-63
2023/02/13 00:43:34;;;;;;;11.85;6.88;;;10.40;99.90;;;;;;5018168;28;20029;-63
2023/02/13 00:46:00;;;;;;;10.43;6.13;;;10.30;99.90;;;;;;5026410;28;20037;-63
2023/02/13 00:48:27;;;;;;;10.80;6.40;;;10.30;99.90;;;;;;5012000;28;20096;-63
2023/02/13 00:50:53;;;;;;;12.85;6.28;;;10.40;99.90;;;;;;5011097;28;20045;-63
2023/02/13 00:53:24;;;;;;;10.82;5.85;;;10.40;99.90;;;;;;5011816;28;20362;-63
2023/02/13 00:55:50;;;;;;;9.63;5.93;;;10.30;99.90;;;;;;5011523;28;20502;-63
2023/02/13 00:58:16;;;;;;;9.98;5.50;;;10.30;99.90;;;;;;5018316;28;20096;-62
2023/02/13 01:00:43;;;;;;;7.32;4.80;;;10.30;99.90;;;;;;5013552;28;20061;-63
2023/02/13 01:03:09;;;;;;;9.73;5.20;;;10.20;99.90;;;;;;5011198;28;20026;-63
2023/02/13 01:05:35;;;;;;;8.48;4.43;;;10.20;99.90;;;;;;5026647;28;20030;-64
2023/02/13 01:08:00;;;;;;;8.02;4.40;;;10.20;99.90;;;;;;5031039;28;20132;-63
2023/02/13 01:10:26;;;;;;;7.68;4.03;;;10.20;99.90;;;;;;5018738;28;20192;-63
2023/02/13 01:12:52;;;;;;;5.65;3.90;;;10.30;99.90;;;;;;5030599;28;20026;-63
2023/02/13 01:15:18;;;;;;;6.38;3.70;;;10.30;99.90;;;;;;5030769;28;20109;-62
2023/02/13 01:17:44;;;;;;;6.35;3.72;;;10.30;99.90;;;;;;5030079;28;20065;-63
2023/02/13 01:20:11;;;;;;;6.60;4.05;;;10.30;99.90;;;;;;5034754;28;20040;-63
2023/02/13 01:22:37;;;;;;;6.80;3.72;;;10.20;99.90;;;;;;5004763;28;20058;-63
2023/02/13 01:25:04;;;;;;;7.55;3.67;;;10.30;99.90;;;;;;5014763;28;20104;-62
2023/02/13 01:27:30;;;;;;;6.13;3.10;;;10.30;99.90;;;;;;5006510;28;20034;-62
2023/02/13 01:29:56;;;;;;;6.60;3.40;;;10.20;99.90;;;;;;5033767;28;20440;-63
2023/02/13 01:32:21;;;;;;;7.72;3.63;;;10.20;99.90;;;;;;5029510;28;20036;-63
2023/02/13 01:34:47;;;;;;;7.07;4.15;;;10.10;99.90;;;;;;5018093;28;20109;-63
2023/02/13 01:37:13;;;;;;;6.05;3.55;;;10.10;99.90;;;;;;5014560;28;20022;-63
2023/02/13 01:39:39;;;;;;;5.25;3.20;;;10.20;99.90;;;;;;5025590;28;20030;-63
2023/02/13 01:42:12;;;;;;;4.47;2.72;;;10.20;99.90;;;;;;5034255;28;20030;-63
2023/02/13 01:44:55;;;;;;;5.80;3.05;;;10.20;99.90;;;;;;5024838;28;20040;-62
2023/02/13 01:47:39;;;;;;;4.82;2.90;;;10.20;99.90;;;;;;5033830;28;20117;-63
2023/02/13 01:50:09;;;;;;;4.72;2.67;;;10.10;99.90;;;;;;5028343;28;20127;-63
2023/02/13 01:52:38;;;;;;;4.13;2.83;;;10.10;99.90;;;;;;5015136;28;20088;-62
2023/02/13 01:55:05;;;;;;;3.70;2.22;;;10.10;99.90;;;;;;5030248;28;20033;-62
2023/02/13 01:57:32;;;;;;;4.65;2.50;;;10.10;99.90;;;;;;5034248;28;20036;-62
2023/02/13 02:00:10;;;;;;;4.40;2.13;;;10.10;99.90;;;;;;5018127;28;20100;-62
2023/02/13 02:02:41;;;;;;;6.40;2.97;;;10.10;99.90;;;;;;5015470;28;20081;-62
2023/02/13 02:05:08;;;;;;;4.75;3.00;;;10.00;99.90;;;;;;5019987;28;20029;-63
2023/02/13 02:07:35;;;;;;;4.35;3.00;;;10.00;99.90;;;;;;5021828;28;20036;-63
2023/02/13 02:10:10;;;;;;;5.97;3.50;;;10.00;99.90;;;;;;5030993;28;20125;-63
2023/02/13 02:12:57;;;;;;;5.45;3.10;;;10.00;99.90;;;;;;5033246;28;20149;-63
2023/02/13 02:15:23;;;;;;;5.80;3.63;;;10.00;99.90;;;;;;5014023;28;20075;-63
2023/02/13 02:17:48;;;;;;;6.35;3.42;;;10.00;99.90;;;;;;5023349;28;20366;-63
2023/02/13 02:20:35;;;;;;;6.10;3.35;;;9.90;99.90;;;;;;5028952;28;20061;-62
2023/02/13 02:23:25;;;;;;;7.32;3.78;;;9.90;99.90;;;;;;5008868;28;20048;-63
2023/02/13 02:26:23;;;;;;;4.40;3.15;;;10.00;99.90;;;;;;5025247;28;20028;-63
2023/02/13 02:29:07;;;;;;;5.18;3.63;;;9.90;99.90;;;;;;5024695;28;20038;-63
2023/02/13 02:31:41;;;;;;;6.40;3.90;;;9.80;99.90;;;;;;5021563;28;20136;-63
2023/02/13 02:34:31;;;;;;;5.60;3.67;;;9.80;99.90;;;;;;5021843;28;20054;-63
2023/02/13 02:37:12;;;;;;;8.50;4.43;;;9.70;99.90;;;;;;5021109;28;20031;-63
2023/02/13 02:39:41;;;;;;;5.45;3.50;;;9.80;99.90;;;;;;5022420;28;20036;-63
2023/02/13 02:42:41;;;;;;;5.38;3.28;;;9.80;99.90;;;;;;5030954;28;20034;-63
2023/02/13 02:45:48;;;;;;;5.30;3.58;;;9.90;99.90;;;;;;4999329;28;20029;-63
2023/02/13 02:51:46;;;;;;;5.97;3.90;;;9.80;99.90;;;;;;5033160;28;20073;-63
2023/02/13 03:06:10;;;;;;;6.50;4.57;;;9.80;99.90;;;;;;5014255;28;20036;-63
2023/02/13 03:14:09;;;;;;;8.50;5.90;;;9.90;99.90;;;;;;5012146;28;20022;-62
2023/02/13 03:22:20;;;;;;;9.50;5.90;;;9.80;99.90;;;;;;5028145;28;20040;-63
2023/02/13 03:25:29;;;;;;;7.10;5.00;;;9.80;99.90;;;;;;5020808;28;20030;-64
2023/02/13 03:31:46;;;;;;;8.02;5.40;;;9.70;99.90;;;;;;4992836;28;20046;-63
2023/02/13 03:34:21;;;;;;;8.20;5.25;;;9.70;99.90;;;;;;5012277;28;20117;-63
2023/02/13 03:39:48;;;;;;;7.85;5.28;;;9.70;99.90;;;;;;5015972;28;20474;-64
2023/02/13 03:42:35;;;;;;;9.10;6.00;;;9.70;99.90;;;;;;5003898;28;20037;-63
2023/02/13 03:50:04;;;;;;;10.73;6.45;;;9.70;99.90;;;;;;5012165;28;20038;-63
2023/02/13 03:50:59;;;;;;;9.95;6.28;;;9.70;99.90;;;;;;5026235;28;20041;-63
2023/02/13 03:53:28;;;;;;;9.70;6.40;;;9.60;99.90;;;;;;5031271;28;20030;-63
2023/02/13 04:01:34;;;;;;;9.07;6.10;;;9.70;99.90;;;;;;5012387;28;20040;-63
2023/02/13 04:04:18;;;;;;;7.97;5.82;;;9.70;99.90;;;;;;5031048;28;20029;-63
2023/02/13 04:06:55;;;;;;;10.05;6.22;;;9.70;99.90;;;;;;5030741;28;20083;-64
2023/02/13 04:09:22;;;;;;;7.95;5.40;;;9.70;99.90;;;;;;5016744;28;20030;-63
2023/02/13 04:12:21;;;;;;;8.07;5.32;;;9.80;99.90;;;;;;5030887;28;20033;-63
2023/02/13 04:15:39;;;;;;;7.20;5.50;;;9.80;99.90;;;;;;5012109;28;20389;-63
2023/02/13 04:18:27;;;;;;;6.65;5.03;;;9.80;99.90;;;;;;4988031;28;20381;-63
2023/02/13 04:20:53;;;;;;;7.47;5.40;;;9.80;99.90;;;;;;5011935;28;20025;-63
2023/02/13 04:23:19;;;;;;;9.90;7.28;;;9.80;99.90;;;;;;5011903;28;20041;-64
2023/02/13 04:25:49;;;;;;;12.27;6.32;;;9.80;99.90;;;;;;5011191;28;20068;-63
2023/02/13 04:28:15;;;;;;;7.63;5.40;;;9.80;99.90;;;;;;5019900;28;20102;-63
2023/02/13 04:30:41;;;;;;;9.10;6.22;;;9.80;99.90;;;;;;4977619;28;20026;-63
2023/02/13 04:33:06;;;;;;;9.15;5.80;;;9.90;99.90;;;;;;5023458;28;20030;-63
2023/02/13 04:35:32;;;;;;;10.88;6.68;;;9.90;99.90;;;;;;5022396;28;20109;-63
2023/02/13 04:37:58;;;;;;;9.25;6.53;;;9.90;99.90;;;;;;5027536;28;20552;-63
2023/02/13 04:40:23;;;;;;;10.77;6.65;;;9.90;99.90;;;;;;5031075;28;20098;-63
2023/02/13 04:42:49;;;;;;;8.05;6.10;;;9.90;99.90;;;;;;5023735;28;20470;-63
2023/02/13 04:45:16;;;;;;;10.00;7.05;;;9.90;99.90;;;;;;5012252;28;20042;-63
2023/02/13 04:47:41;;;;;;;8.93;6.65;;;10.00;99.90;;;;;;5028468;28;20025;-63
2023/02/13 04:50:08;;;;;;;11.85;7.93;;;10.00;99.90;;;;;;5029920;28;20034;-63
2023/02/13 04:52:33;;;;;;;10.55;7.70;;;10.00;99.90;;;;;;5018280;28;20022;-63
2023/02/13 04:54:59;;;;;;;11.43;7.90;;;10.00;99.90;;;;;;5016359;28;20504;-63
2023/02/13 04:57:24;;;;;;;10.90;7.95;;;10.00;99.90;;;;;;5034639;28;20021;-63
2023/02/13 04:59:50;;;;;;;11.05;7.05;;;10.00;99.90;;;;;;5019701;28;20512;-63
2023/02/13 05:02:16;;;;;;;10.07;7.38;;;10.00;99.90;;;;;;5034177;28;20532;-63
2023/02/13 05:04:41;;;;;;;8.77;6.85;;;10.00;99.90;;;;;;5017596;28;20037;-63
2023/02/13 05:07:07;;;;;;;12.00;7.55;;;9.90;99.90;;;;;;5024923;28;20025;-63
2023/02/13 05:09:32;;;;;;;10.35;7.07;;;10.00;99.90;;;;;;5026146;28;20401;-63
2023/02/13 05:11:58;;;;;;;10.13;6.22;;;9.90;99.90;;;;;;5014567;28;20036;-63
2023/02/13 05:14:24;;;;;;;10.88;7.13;;;9.90;99.90;;;;;;5015084;28;20068;-63
2023/02/13 05:16:49;;;;;;;8.00;5.97;;;9.90;99.90;;;;;;5021708;28;20025;-63
2023/02/13 05:19:16;;;;;;;9.20;5.50;;;9.90;99.90;;;;;;5035003;28;20024;-63
2023/02/13 05:24:26;;;;;;;9.90;6.47;;;9.90;99.90;;;;;;5030388;28;20113;-63
2023/02/13 05:26:51;;;;;;;8.45;5.55;;;10.00;99.90;;;;;;5020486;28;20112;-63
2023/02/13 05:29:21;;;;;;;9.52;6.47;;;9.90;99.90;;;;;;5014750;28;20022;-63
2023/02/13 05:31:55;;;;;;;9.55;6.05;;;9.90;99.90;;;;;;5015129;28;20791;-63
2023/02/13 05:34:22;;;;;;;10.38;6.22;;;9.90;99.90;;;;;;5014662;28;20503;-63
2023/02/13 05:36:48;;;;;;;8.85;6.22;;;9.90;99.90;;;;;;5020965;28;20543;-63
2023/02/13 05:39:14;;;;;;;8.63;6.13;;;9.90;99.90;;;;;;5013273;28;20330;-63
2023/02/13 05:41:41;;;;;;;7.85;5.22;;;9.90;99.90;;;;;;5013947;28;20033;-63
2023/02/13 05:44:08;;;;;;;8.07;5.78;;;9.90;99.90;;;;;;5027383;28;20409;-63
2023/02/13 05:46:33;;;;;;;7.60;4.93;;;9.90;99.90;;;;;;5033653;28;20025;-63
2023/02/13 05:48:59;;;;;;;9.20;5.82;;;9.90;99.90;;;;;;5018027;28;20388;-63
2023/02/13 05:51:24;;;;;;;8.85;5.93;;;10.00;99.90;;;;;;5013923;28;20034;-64
2023/02/13 05:53:50;;;;;;;8.95;6.20;;;9.90;99.90;;;;;;5014548;28;20056;-63
2023/02/13 05:56:16;;;;;;;8.57;5.95;;;9.90;99.90;;;;;;5013869;28;20421;-63
2023/02/13 05:58:41;;;;;;;7.25;5.20;;;10.00;99.90;;;;;;5027597;28;20092;-63
2023/02/13 06:01:07;;;;;;;6.90;4.85;;;9.90;99.90;;;;;;5015859;28;20026;-63
2023/02/13 06:03:33;;;;;;;8.63;5.63;;;10.00;99.90;;;;;;5031527;28;20034;-63
2023/02/13 06:05:58;;;;;;;8.50;5.97;;;10.00;99.90;;;;;;5031550;28;20109;-63
2023/02/13 06:08:25;;;;;;;9.70;5.95;;;10.00;99.90;;;;;;5032705;28;20037;-64
2023/02/13 06:10:51;;;;;;;8.43;5.70;;;10.00;99.90;;;;;;5021171;28;20038;-64
2023/02/13 06:13:18;;;;;;;10.65;6.72;;;10.00;99.90;;;;;;5013803;28;20034;-64
2023/02/13 06:15:44;;;;;;;10.48;6.68;;;10.00;99.90;;;;;;5013208;28;20385;-64
2023/02/13 06:18:10;;;;;;;7.82;5.82;;;10.10;99.90;;;;;;5017178;28;20116;-65
2023/02/13 06:20:36;;;;;;;9.65;6.07;;;10.00;99.90;;;;;;5013289;28;20034;-64
2023/02/13 06:23:01;;;;;;;9.02;6.20;;;10.00;99.90;;;;;;5030141;28;20084;-64
2023/02/13 06:25:27;;;;;;;10.77;6.25;;;10.10;99.90;;;;;;5029119;28;20052;-64
2023/02/13 06:27:52;;;;;;;8.65;5.47;;;10.10;99.90;;;;;;5029145;28;20026;-64
2023/02/13 06:30:19;;;;;;;7.78;5.63;;;10.10;99.90;;;;;;5014890;28;20038;-63
2023/02/13 06:32:48;;;;;;;10.20;6.25;;;10.10;99.90;;;;;;5016441;28;20068;-64
2023/02/13 06:35:14;;;;;;;8.18;5.60;;;10.10;99.90;;;;;;5015282;28;20061;-64
2023/02/13 06:37:42;;;;;;;7.43;5.07;;;10.10;99.90;;;;;;5014178;28;20033;-64
2023/02/13 06:40:09;;;;;;;10.68;5.88;;;10.10;99.90;;;;;;5013738;28;20033;-64
2023/02/13 06:42:34;;;;;;;7.57;5.00;;;10.10;99.90;;;;;;5013696;28;20077;-64
2023/02/13 06:45:00;;;;;;;7.57;5.38;;;10.10;99.90;;;;;;5014092;28;20498;-64
2023/02/13 06:47:25;;;;;;;6.72;4.60;;;10.10;99.90;;;;;;4995050;28;20022;-64
2023/02/13 06:49:51;;;;;;;6.88;5.07;;;10.10;99.90;;;;;;5020744;28;20041;-64
2023/02/13 06:52:17;;;;;;;7.05;4.88;;;10.10;99.90;;;;;;5019174;28;20030;-63
2023/02/13 06:54:42;;;;;;;9.32;4.97;;;10.20;99.90;;;;;;5019546;28;20108;-63
2023/02/13 06:57:08;;;;;;;7.63;5.03;;;10.10;99.90;;;;;;5030732;28;20039;-63
2023/02/13 06:59:34;;;;;;;10.30;5.65;;;10.20;99.90;;;;;;5015727;28;20095;-63
2023/02/13 07:01:59;;;;;;;6.57;5.00;;;10.20;99.90;;;;;;5015904;28;20030;-61
2023/02/13 07:04:26;;;;;;;7.13;5.50;;;10.20;99.90;;;;;;5012891;28;20429;-63
2023/02/13 07:06:56;;;;;;;7.97;5.70;;;10.20;99.90;;;;;;5030589;28;20048;-63
2023/02/13 07:09:23;;;;;;;8.75;5.63;;;10.20;99.90;;;;;;5026220;28;20025;-63
2023/02/13 07:11:48;;;;;;;6.72;5.03;;;10.20;99.90;;;;;;5031302;28;20059;-63
2023/02/13 07:14:14;;;;;;;9.38;5.88;;;10.20;99.90;;;;;;5016088;28;20054;-63
2023/02/13 07:16:39;;;;;;;8.48;6.63;;;10.20;99.90;;;;;;5012566;28;20097;-63
2023/02/13 07:19:05;;;;;;;7.78;5.40;;;10.20;99.90;;;;;;5015090;28;20025;-64
2023/02/13 07:21:31;;;;;;;7.50;5.60;;;10.20;99.90;;;;;;5012576;28;20037;-63
2023/02/13 07:23:56;;;;;;;8.45;5.35;;;10.20;99.90;;;;;;5016013;28;20042;-62
2023/02/13 07:26:22;;;;;;;7.35;5.50;;;10.20;99.90;;;;;;5013547;28;20458;-63
2023/02/13 07:28:48;;;;;;;11.30;5.88;;;10.30;99.90;;;;;;5018780;28;20021;-63
2023/02/13 07:31:13;;;;;;;8.73;5.80;;;10.30;99.90;;;;;;5031512;28;20033;-62
2023/02/13 07:33:39;;;;;;;8.73;5.97;;;10.30;99.90;;;;;;5021748;28;20512;-62
2023/02/13 07:36:05;;;;;;;7.95;6.30;;;10.30;99.90;;;;;;5002201;28;20518;-62
2023/02/13 07:38:31;;;;;;;9.93;6.22;;;10.30;99.90;;;;;;5015125;28;20429;-62
2023/02/13 07:40:59;;;;;;;9.70;5.65;;;10.30;99.90;;;;;;5020379;28;20033;-62
2023/02/13 07:43:24;;;;;;;8.63;6.63;;;10.30;99.90;;;;;;5006451;28;20022;-62
2023/02/13 07:45:54;;;;;;;7.78;5.45;;;10.40;99.90;;;;;;5011837;28;20041;-63
2023/02/13 07:48:22;;;;;;;11.23;5.45;;;10.40;99.90;;;;;;5020789;28;20032;-63
2023/02/13 07:50:49;;;;;;;8.75;6.43;;;10.40;99.90;;;;;;5025426;28;20049;-63
2023/02/13 07:53:14;;;;;;;7.25;5.40;;;10.30;99.90;;;;;;5031183;28;20049;-63
2023/02/13 07:55:41;;;;;;;8.73;6.30;;;10.30;99.90;;;;;;5014547;28;20497;-63
2023/02/13 07:58:07;;;;;;;8.70;5.88;;;10.40;99.90;;;;;;5012138;28;20030;-63
2023/02/13 08:00:32;;;;;;;9.15;6.60;;;10.40;99.90;;;;;;5026862;28;20045;-65
2023/02/13 08:02:59;;;;;;;8.77;5.80;;;10.40;99.90;;;;;;5031253;28;20037;-63
2023/02/13 08:05:24;;;;;;;8.95;6.25;;;10.50;99.90;;;;;;5018760;28;20575;-63
2023/02/13 08:07:51;;;;;;;9.60;5.38;;;10.30;99.90;;;;;;5031447;28;20026;-63
2023/02/13 08:13:01;;;;;;;10.85;6.45;;;10.40;99.90;;;;;;5012648;28;20252;-63
2023/02/13 08:15:27;;;;;;;10.45;5.45;;;10.40;99.90;;;;;;5012569;28;20232;-63
2023/02/13 08:17:52;;;;;;;8.48;6.20;;;10.40;99.90;;;;;;4994013;28;20061;-64
2023/02/13 08:20:18;;;;;;;9.23;5.55;;;10.40;99.90;;;;;;5011256;28;20034;-64
2023/02/13 08:22:43;;;;;;;8.90;6.22;;;10.40;99.90;;;;;;5011147;28;20026;-63
2023/02/13 08:25:09;;;;;;;9.43;5.47;;;10.50;99.90;;;;;;5011720;28;20030;-63
2023/02/13 08:27:35;;;;;;;8.30;5.57;;;10.50;99.90;;;;;;5009753;28;20054;-63
2023/02/13 08:30:02;;;;;;;9.25;5.85;;;10.50;99.90;;;;;;5012320;28;20481;-63
2023/02/13 08:32:27;;;;;;;8.20;6.07;;;10.50;99.90;;;;;;5034049;28;20101;-64
2023/02/13 08:34:53;;;;;;;10.23;5.93;;;10.50;99.90;;;;;;5029833;28;20498;-63
2023/02/13 08:37:19;;;;;;;9.30;5.95;;;10.50;99.90;;;;;;5030647;28;20061;-63
2023/02/13 08:39:44;;;;;;;8.32;5.60;;;10.50;99.90;;;;;;5011953;28;20033;-64
2023/02/13 08:42:10;;;;;;;10.55;5.50;;;10.50;99.90;;;;;;5019483;28;20105;-64
2023/02/13 08:44:36;;;;;;;8.65;5.45;;;10.50;99.90;;;;;;5007497;28;20030;-64
2023/02/13 08:47:02;;;;;;;9.18;6.28;;;10.60;99.90;;;;;;5028925;28;20025;-64
2023/02/13 08:49:31;;;;;;;9.73;5.68;;;10.60;99.90;;;;;;5027577;28;20065;-64
2023/02/13 08:51:57;;;;;;;9.75;6.70;;;10.60;99.90;;;;;;5011765;28;20094;-64
2023/02/13 08:54:22;;;;;;;9.77;6.57;;;10.60;99.90;;;;;;5011036;28;20114;-64
2023/02/13 08:56:48;;;;;;;10.25;6.63;;;10.70;99.90;;;;;;5016958;28;20021;-64
2023/02/13 08:59:13;;;;;;;8.63;5.82;;;10.60;99.90;;;;;;5029338;28;20076;-64
2023/02/13 09:01:40;;;;;;;10.10;6.57;;;10.70;99.90;;;;;;5027915;28;20034;-63
2023/02/13 09:04:05;;;;;;;10.48;6.18;;;10.70;99.90;;;;;;5012297;28;20030;-62
2023/02/13 09:06:31;;;;;;;12.82;6.47;;;10.70;99.90;;;;;;5017909;28;20240;-63
2023/02/13 09:08:56;;;;;;;10.32;6.30;;;10.70;99.80;;;;;;5033723;28;20377;-63
2023/02/13 09:11:22;;;;;;;12.68;7.25;;;10.70;99.90;;;;;;5028288;28;20044;-64
2023/02/13 09:13:49;;;;;;;9.60;6.55;;;10.60;99.90;;;;;;5026204;28;20129;-64
2023/02/13 09:16:15;;;;;;;10.35;6.38;;;10.70;99.90;;;;;;5027134;28;20427;-63
2023/02/13 09:18:40;;;;;;;17.23;6.32;;;10.70;99.90;;;;;;5011164;28;20022;-63
2023/02/13 09:21:10;;;;;;;12.15;6.65;;;10.70;99.90;;;;;;5013661;28;20449;-64
2023/02/13 09:23:38;;;;;;;11.93;6.72;;;10.70;99.90;;;;;;5012341;28;20030;-63
2023/02/13 09:26:09;;;;;;;9.85;6.75;;;10.80;99.90;;;;;;5012695;28;20040;-63
2023/02/13 09:28:36;;;;;;;11.45;6.53;;;10.80;99.90;;;;;;5021941;28;20489;-64
2023/02/13 09:31:20;;;;;;;11.65;6.70;;;10.80;99.90;;;;;;5030606;28;20045;-63
2023/02/13 09:33:47;;;;;;;10.55;6.80;;;10.80;99.90;;;;;;5016991;28;20102;-63
2023/02/13 09:36:22;;;;;;;11.52;7.22;;;10.80;99.90;;;;;;5016658;28;20116;-63
2023/02/13 09:38:53;;;;;;;11.10;6.85;;;10.80;99.90;;;;;;5006002;28;20465;-63
2023/02/13 09:41:21;;;;;;;14.65;7.70;;;10.90;99.90;;;;;;5027575;28;20092;-63
2023/02/13 09:44:03;;;;;;;11.30;7.75;;;10.90;99.90;;;;;;5032426;28;20029;-62
2023/02/13 09:46:34;;;;;;;10.07;6.32;;;10.80;99.90;;;;;;5014967;28;20034;-64
2023/02/13 09:49:07;;;;;;;11.50;6.93;;;10.80;99.90;;;;;;5028338;28;20025;-62
2023/02/13 09:51:33;;;;;;;15.18;7.57;;;10.80;99.90;;;;;;5030169;28;20566;-62
2023/02/13 09:54:05;;;;;;;14.30;9.00;;;10.80;99.90;;;;;;5033405;28;20473;-63
2023/02/13 09:56:59;;;;;;;12.82;7.47;;;10.80;99.90;;;;;;5029607;28;20034;-63
2023/02/13 09:59:55;;;;;;;13.00;8.20;;;10.70;99.90;;;;;;5015914;28;20069;-63
2023/02/13 10:02:42;;;;;;;13.07;8.75;;;10.70;99.90;;;;;;5013982;28;20399;-63
2023/02/13 10:05:27;;;;;;;16.30;8.55;;;10.70;99.90;;;;;;4995995;28;20416;-63
2023/02/13 10:08:11;;;;;;;;;;;10.70;99.90;;;;;;5020847;28;20032;-63
2023/02/13 10:11:07;;;;;;;14.70;7.55;;;10.70;99.90;;;;;;5033338;28;19927;-63
2023/02/13 10:14:09;;;;;;;13.15;7.82;;;10.70;99.90;;;;;;5014532;28;20519;-62
2023/02/13 10:16:52;;;;;;;16.02;9.15;;;10.70;99.90;;;;;;5016809;28;20021;-62
2023/02/13 10:19:47;;;;;;;13.98;8.13;;;10.70;99.90;;;;;;5019143;28;20022;-63
2023/02/13 10:22:15;;;;;;;14.18;9.35;;;10.70;99.90;;;;;;5016420;28;20067;-62
2023/02/13 10:24:55;;;;;;;15.23;8.73;;;10.70;99.90;;;;;;5023174;28;20026;-62
2023/02/13 10:27:36;;;;;;;13.90;8.55;;;10.80;99.90;;;;;;5029418;28;20520;-62
2023/02/13 10:30:15;;;;;;;15.10;8.30;;;10.80;99.90;;;;;;5032243;28;20037;-62
2023/02/13 10:33:18;;;;;;;14.85;7.55;;;10.80;99.90;;;;;;5018261;28;20069;-64
2023/02/13 10:36:14;;;;;;;11.95;7.55;;;10.80;99.90;;;;;;5016020;28;20034;-63
2023/02/13 10:38:55;;;;;;;11.40;7.47;;;10.80;99.90;;;;;;4983721;28;20044;-63
2023/02/13 10:41:50;;;;;;;11.02;7.00;;;10.80;99.90;;;;;;5033027;28;20268;-64
2023/02/13 10:44:50;;;;;;;11.68;7.63;;;10.90;99.90;;;;;;5031869;28;20029;-64
2023/02/13 10:47:30;;;;;;;12.27;7.30;;;10.80;99.90;;;;;;5032872;28;20026;-63
2023/02/13 10:50:20;;;;;;;11.73;7.75;;;10.80;99.90;;;;;;5026087;28;20029;-63
2023/02/13 10:53:21;;;;;;;12.50;7.45;;;10.80;99.90;;;;;;5032462;28;20421;-63
2023/02/13 10:56:03;;;;;;;10.20;6.60;;;10.90;99.90;;;;;;5024998;28;20026;-64
2023/02/13 10:58:34;;;;;;;9.82;6.88;;;10.90;99.90;;;;;;5012817;28;20030;-64
2023/02/13 11:01:16;;;;;;;10.80;6.80;;;10.90;99.90;;;;;;5012995;28;20018;-63
2023/02/13 11:03:41;;;;;;;10.13;7.03;;;10.90;99.90;;;;;;4995337;28;20113;-63
2023/02/13 11:06:12;;;;;;;11.13;7.70;;;10.90;99.90;;;;;;5017645;28;20161;-63
2023/02/13 11:08:44;;;;;;;11.02;6.82;;;10.90;99.90;;;;;;5032778;28;20029;-63
2023/02/13 11:11:37;;;;;;;11.90;7.65;;;10.90;99.90;;;;;;5031830;28;20041;-63
2023/02/13 11:14:16;;;;;;;10.55;7.38;;;10.90;99.90;;;;;;5016081;28;20443;-63
2023/02/13 11:16:54;;;;;;;14.60;7.72;;;10.90;99.90;;;;;;5032560;28;20033;-63
2023/02/13 11:19:25;;;;;;;13.40;8.18;;;10.90;99.90;;;;;;5037252;28;20234;-63
2023/02/13 11:21:59;;;;;;;15.13;9.13;;;11.00;99.90;;;;;;5024735;28;20052;-63
2023/02/13 11:24:26;;;;;;;14.48;7.95;;;10.90;99.90;;;;;;5023534;28;20470;-63
2023/02/13 11:27:14;;;;;;;11.23;7.30;;;10.90;99.90;;;;;;5012625;28;20034;-63
2023/02/13 11:29:57;;;;;;;13.68;8.13;;;10.90;99.90;;;;;;5029915;28;20039;-63
2023/02/13 11:32:31;;;;;;;11.95;8.02;;;11.00;99.90;;;;;;5032265;28;20029;-63
2023/02/13 11:34:57;;;;;;;14.43;8.82;;;11.00;99.90;;;;;;5032331;28;20025;-63
2023/02/13 11:37:27;;;;;;;13.65;9.38;;;11.00;99.90;;;;;;5018311;28;20030;-64
2023/02/13 11:39:59;;;;;;;14.43;9.57;;;11.00;99.90;;;;;;5014762;28;20030;-64
2023/02/13 11:42:34;;;;;;;13.07;9.48;;;11.00;99.90;;;;;;5031614;28;20410;-63
2023/02/13 11:45:20;;;;;;;16.13;9.05;;;11.10;99.90;;;;;;5030942;28;20037;-63
2023/02/13 11:47:46;;;;;;;14.30;9.15;;;11.10;99.90;;;;;;5031712;28;20101;-63
2023/02/13 11:50:26;;;;;;;15.50;8.38;;;11.00;99.90;;;;;;5039511;28;20033;-63
2023/02/13 11:53:03;;;;;;;15.05;9.88;;;11.00;99.90;;;;;;5048147;28;20032;-63
2023/02/13 11:55:30;;;;;;;18.02;10.05;;;11.00;99.90;;;;;;5011479;28;20033;-63
2023/02/13 11:57:59;;;;;;;14.70;9.80;;;10.90;99.90;;;;;;5023491;28;20057;-63
2023/02/13 12:00:36;;;;;;;14.45;10.00;;;10.90;99.90;;;;;;5024851;28;20383;-64
2023/02/13 12:03:23;;;;;;;14.63;9.50;;;11.00;99.90;;;;;;5011517;28;20096;-64
2023/02/13 12:06:14;;;;;;;15.40;9.90;;;11.00;99.90;;;;;;5011710;28;20489;-64
2023/02/13 12:08:44;;;;;;;17.40;10.35;;;11.00;99.90;;;;;;5011646;28;20411;-64
2023/02/13 12:11:46;;;;;;;16.30;10.27;;;10.90;99.90;;;;;;5024968;28;20068;-64
2023/02/13 12:14:22;;;;;;;14.05;9.90;;;10.90;99.90;;;;;;5017837;28;20060;-64
2023/02/13 12:16:54;;;;;;;16.45;10.43;;;10.90;99.90;;;;;;5018115;28;20026;-64
2023/02/13 12:19:27;;;;;;;18.33;11.13;;;10.90;99.90;;;;;;5022619;28;20022;-64
2023/02/13 12:22:13;;;;;;;14.25;9.48;;;11.00;99.90;;;;;;5018536;28;20029;-64
2023/02/13 12:25:01;;;;;;;13.02;9.60;;;11.00;99.90;;;;;;5017959;28;20031;-64
2023/02/13 12:27:41;;;;;;;16.85;10.73;;;11.00;99.90;;;;;;5014744;28;20041;-64
2023/02/13 12:30:14;;;;;;;15.95;10.05;;;11.10;99.90;;;;;;5030586;28;20029;-64
2023/02/13 12:33:17;;;;;;;17.73;11.30;;;11.10;99.90;;;;;;5018970;28;20049;-64
2023/02/13 12:35:46;;;;;;;16.00;10.38;;;11.10;99.80;;;;;;5016482;28;20084;-63
2023/02/13 12:38:12;;;;;;;16.70;11.35;;;11.10;99.70;;;;;;5031135;28;20766;-63
2023/02/13 12:40:58;;;;;;;14.75;10.48;;;11.20;99.70;;;;;;5031028;28;20031;-63
2023/02/13 12:43:51;;;;;;;16.27;10.73;;;11.20;99.60;;;;;;5030934;28;20030;-64
2023/02/13 12:46:39;;;;;;;18.45;11.10;;;11.20;99.60;;;;;;5011365;28;20434;-64
2023/02/13 12:49:24;;;;;;;18.75;10.73;;;11.20;99.50;;;;;;5011272;28;20057;-64
2023/02/13 12:52:07;;;;;;;17.77;11.07;;;11.20;99.40;;;;;;5016607;28;20072;-64
2023/02/13 12:54:42;;;;;;;16.48;11.35;;;11.20;99.30;;;;;;5031041;28;20275;-64
2023/02/13 12:57:17;;;;;;;;;;;11.10;99.30;;;;;;5031276;28;20468;-65
2023/02/13 13:00:02;;;;;;;14.55;9.70;;;11.10;99.30;;;;;;5019381;28;19917;-63
2023/02/13 13:02:33;;;;;;;15.20;10.52;;;11.10;99.20;;;;;;5011505;28;20026;-64
2023/02/13 13:05:05;;;;;;;17.17;11.43;;;11.10;99.20;;;;;;5000601;28;20426;-64
2023/02/13 13:07:58;;;;;;;17.08;11.00;;;11.10;99.10;;;;;;4987401;28;20030;-64
2023/02/13 13:10:54;;;;;;;17.33;9.98;;;11.00;99.10;;;;;;4994628;28;20389;-64
2023/02/13 13:13:35;;;;;;;15.95;10.30;;;11.00;99.10;;;;;;4997178;28;20504;-64
2023/02/13 13:16:43;;;;;;;16.95;10.65;;;11.00;99.10;;;;;;5013428;28;20100;-63
2023/02/13 13:19:43;;;;;;;16.65;10.30;;;11.00;98.90;;;;;;4992445;28;20526;-63
2023/02/13 13:22:25;;;;;;;15.32;10.95;;;10.80;99.00;;;;;;5007224;28;20431;-63
2023/02/13 13:25:24;;;;;;;25.50;13.52;;;10.80;99.10;;;;;;5007676;28;20026;-64
2023/02/13 13:27:54;;;;;;;16.88;11.63;;;10.80;99.10;;;;;;5016884;28;20059;-64
2023/02/13 13:30:25;;;;;;;18.48;10.80;;;10.80;98.90;;;;;;4995019;28;20041;-63
2023/02/13 13:32:56;;;;;;;14.75;9.82;;;10.80;99.10;;;;;;4995660;28;20026;-63
2023/02/13 13:35:22;;;;;;;16.50;10.38;;;10.80;99.10;;;;;;5013611;28;20033;-64
2023/02/13 13:38:05;;;;;;;20.67;11.55;;;10.80;99.10;;;;;;5013150;28;20022;-63
2023/02/13 13:40:45;;;;;;;22.05;12.02;;;10.80;99.10;;;;;;4995673;28;20038;-64
2023/02/13 13:43:32;;;;;;;15.10;10.45;;;10.80;99.10;;;;;;4998636;28;20363;-64
2023/02/13 13:46:32;;;;;;;18.23;12.13;;;10.70;99.00;;;;;;5014389;28;20025;-64
2023/02/13 13:48:58;;;;;;;22.02;11.95;;;10.70;99.10;;;;;;5013873;28;20038;-64
2023/02/13 13:51:24;;;;;;;16.90;10.60;;;10.70;99.10;;;;;;4996844;28;20084;-64
2023/02/13 13:54:02;;;;;;;17.25;10.63;;;10.80;99.20;;;;;;5013309;28;20026;-63
2023/02/13 13:56:52;;;;;;;17.27;10.95;;;10.80;99.10;;;;;;4998338;28;20034;-63
2023/02/13 13:59:33;;;;;;;15.00;10.93;;;10.80;99.00;;;;;;5003793;28;20050;-64